Time;durP1;ratioP1;P1;durP2;ratioP2;P2;SDS_P1;SDS_P2;PMS_P1;PMS_P2;Temp;Humidity;BMP_temperature;BMP_pressure;BME280_temperature;BME280_humidity;BME280_pressure;Samples;Min_cycle;Max_cycle;Signal;HPM_P1;HPM_P2
2022/04/24 00:02:12;;;;;;;19.00;16.33;;;11.30;99.90;;;;;;5077392;28;20196;-68
2022/04/24 00:04:38;;;;;;;17.03;15.33;;;11.30;99.90;;;;;;5114996;28;20603;-68
2022/04/24 00:07:07;;;;;;;21.03;16.37;;;11.20;99.90;;;;;;5115413;28;20400;-68
2022/04/24 00:09:33;;;;;;;19.33;17.33;;;11.30;99.90;;;;;;5115092;28;20419;-68
2022/04/24 00:11:59;;;;;;;17.73;15.93;;;11.40;99.90;;;;;;5115068;28;20404;-68
2022/04/24 00:14:24;;;;;;;18.10;16.00;;;11.50;99.90;;;;;;5115261;28;20164;-69
2022/04/24 00:16:50;;;;;;;19.77;17.63;;;11.50;99.90;;;;;;5114987;28;20254;-68
2022/04/24 00:19:18;;;;;;;18.23;16.27;;;11.50;99.90;;;;;;5114607;28;20206;-69
2022/04/24 00:21:45;;;;;;;17.50;15.63;;;11.60;99.90;;;;;;5114702;28;20199;-69
2022/04/24 00:24:11;;;;;;;19.40;17.40;;;11.60;99.90;;;;;;5114824;28;21038;-68
2022/04/24 00:26:37;;;;;;;17.93;16.03;;;11.60;99.90;;;;;;5115068;28;20439;-68
2022/04/24 00:29:03;;;;;;;16.03;14.33;;;11.60;99.90;;;;;;5115006;28;20420;-68
2022/04/24 00:31:28;;;;;;;17.30;15.60;;;11.60;99.90;;;;;;5115097;28;20409;-68
2022/04/24 00:33:54;;;;;;;19.63;17.60;;;11.60;99.90;;;;;;5114268;28;20517;-68
2022/04/24 00:36:19;;;;;;;18.07;16.23;;;11.50;99.90;;;;;;5114791;28;20209;-68
2022/04/24 00:38:45;;;;;;;18.90;17.00;;;11.50;99.90;;;;;;5114569;28;20689;-69
2022/04/24 00:41:11;;;;;;;16.80;15.20;;;11.40;99.90;;;;;;5114848;28;20220;-69
2022/04/24 00:43:36;;;;;;;19.10;16.87;;;11.50;99.90;;;;;;5113045;28;20215;-69
2022/04/24 00:46:18;;;;;;;17.53;15.70;;;11.40;99.90;;;;;;5114794;28;20647;-69
2022/04/24 00:48:44;;;;;;;16.67;15.03;;;11.60;99.90;;;;;;5114258;28;20176;-69
2022/04/24 00:51:11;;;;;;;17.77;15.93;;;11.70;99.90;;;;;;5114278;28;20408;-69
2022/04/24 00:53:37;;;;;;;17.73;15.87;;;11.80;99.90;;;;;;5113380;28;20967;-69
2022/04/24 00:56:03;;;;;;;20.93;15.90;;;11.70;99.90;;;;;;5114258;28;20413;-69
2022/04/24 00:58:30;;;;;;;17.50;15.80;;;11.70;99.90;;;;;;5113859;28;20938;-69
2022/04/24 01:00:56;;;;;;;16.93;15.13;;;11.70;99.90;;;;;;5114149;28;20402;-69
2022/04/24 01:03:23;;;;;;;19.53;17.50;;;11.70;99.90;;;;;;5092639;28;20450;-69
2022/04/24 01:05:48;;;;;;;17.70;15.90;;;11.70;99.90;;;;;;5073692;28;20413;-69
2022/04/24 01:08:14;;;;;;;17.80;16.10;;;11.90;99.90;;;;;;5073565;28;20420;-69
2022/04/24 01:10:40;;;;;;;20.80;17.47;;;11.90;99.90;;;;;;5073390;28;20161;-69
2022/04/24 01:13:06;;;;;;;17.80;16.07;;;11.90;99.90;;;;;;5073786;28;20295;-68
2022/04/24 01:15:33;;;;;;;17.23;15.63;;;11.90;99.90;;;;;;5072478;28;20404;-68
2022/04/24 01:17:59;;;;;;;17.47;15.77;;;11.90;99.90;;;;;;5072549;28;20970;-68
2022/04/24 01:20:25;;;;;;;16.60;14.90;;;11.90;99.90;;;;;;5073735;28;20455;-68
2022/04/24 01:22:51;;;;;;;19.17;17.27;;;11.90;99.90;;;;;;5073988;28;20482;-68
2022/04/24 01:25:17;;;;;;;20.07;17.97;;;11.80;99.90;;;;;;5074359;28;20169;-69
2022/04/24 01:27:43;;;;;;;16.77;15.07;;;11.90;99.90;;;;;;5073938;28;20486;-69
2022/04/24 01:30:09;;;;;;;19.10;17.10;;;12.00;99.90;;;;;;5073811;28;20676;-69
2022/04/24 01:32:35;;;;;;;19.57;17.63;;;12.10;99.90;;;;;;5082800;28;20494;-69
2022/04/24 01:35:02;;;;;;;17.90;16.17;;;12.10;99.90;;;;;;5114446;28;20802;-70
2022/04/24 01:37:28;;;;;;;19.07;17.17;;;12.00;99.90;;;;;;5114370;28;20514;-69
2022/04/24 01:39:54;;;;;;;18.00;16.20;;;12.00;99.90;;;;;;5114261;28;20398;-69
2022/04/24 01:42:20;;;;;;;21.20;19.00;;;11.90;99.90;;;;;;5114221;28;20194;-69
2022/04/24 01:44:46;;;;;;;17.83;16.03;;;11.70;99.90;;;;;;5114313;28;20837;-69
2022/04/24 01:47:12;;;;;;;21.77;19.57;;;11.80;99.90;;;;;;5114097;28;20402;-69
2022/04/24 01:49:38;;;;;;;19.47;17.47;;;11.90;99.90;;;;;;5114070;28;20186;-69
2022/04/24 01:52:07;;;;;;;19.63;17.63;;;12.10;99.90;;;;;;5114108;28;20540;-69
2022/04/24 01:54:32;;;;;;;17.93;16.20;;;12.10;99.90;;;;;;5114032;28;20521;-69
2022/04/24 01:56:58;;;;;;;19.83;17.93;;;12.10;99.90;;;;;;5113951;28;20484;-69
2022/04/24 01:59:24;;;;;;;18.80;16.97;;;12.00;99.90;;;;;;5084489;28;20194;-69
2022/04/24 02:01:49;;;;;;;19.47;17.13;;;12.00;99.90;;;;;;5073188;28;20274;-69
2022/04/24 02:04:16;;;;;;;18.60;16.80;;;12.00;99.90;;;;;;5109379;28;20167;-69
2022/04/24 02:06:42;;;;;;;19.60;16.73;;;12.10;99.90;;;;;;5113304;28;20164;-68
2022/04/24 02:09:08;;;;;;;19.00;17.07;;;12.20;99.90;;;;;;5113096;28;20414;-69
2022/04/24 02:11:34;;;;;;;19.50;17.70;;;12.30;99.90;;;;;;5113119;28;20487;-69
2022/04/24 02:13:59;;;;;;;19.30;17.27;;;12.40;99.90;;;;;;5112520;28;20160;-69
2022/04/24 02:16:25;;;;;;;17.60;15.73;;;12.40;99.90;;;;;;5112827;28;20167;-68
2022/04/24 02:18:51;;;;;;;17.57;15.97;;;12.40;99.90;;;;;;5112591;28;20617;-69
2022/04/24 02:21:16;;;;;;;19.40;17.43;;;12.60;99.90;;;;;;5113135;28;20169;-69
2022/04/24 02:23:42;;;;;;;18.60;16.70;;;12.60;99.90;;;;;;5113271;28;20696;-70
2022/04/24 02:26:08;;;;;;;19.50;17.60;;;12.60;99.90;;;;;;5113277;28;20244;-69
2022/04/24 02:28:33;;;;;;;20.07;18.13;;;12.60;99.90;;;;;;5114667;28;20265;-69
2022/04/24 02:30:59;;;;;;;20.33;18.23;;;12.60;99.90;;;;;;5115186;28;20314;-69
2022/04/24 02:33:24;;;;;;;18.03;16.20;;;12.60;99.90;;;;;;5112833;28;20174;-69
2022/04/24 02:35:50;;;;;;;19.50;17.60;;;12.60;99.90;;;;;;5113227;28;20166;-69
2022/04/24 02:38:16;;;;;;;21.90;19.50;;;12.60;99.90;;;;;;5113050;28;20253;-69
2022/04/24 02:40:41;;;;;;;21.13;19.03;;;12.70;99.90;;;;;;5113407;28;20162;-69
2022/04/24 02:43:07;;;;;;;18.90;17.00;;;12.60;99.90;;;;;;5113472;28;20244;-69
2022/04/24 02:45:33;;;;;;;21.13;18.93;;;12.70;99.90;;;;;;5114000;28;20532;-69
2022/04/24 02:47:58;;;;;;;17.87;16.00;;;12.60;99.90;;;;;;5112601;28;20219;-69
2022/04/24 02:50:24;;;;;;;19.20;16.90;;;12.60;99.90;;;;;;5094921;28;20632;-69
2022/04/24 02:52:52;;;;;;;20.17;18.07;;;12.60;99.90;;;;;;5113248;28;20169;-69
2022/04/24 02:55:18;;;;;;;22.37;20.17;;;12.50;99.90;;;;;;5113144;28;20173;-69
2022/04/24 02:57:45;;;;;;;21.43;19.17;;;12.50;99.90;;;;;;5112940;28;20422;-69
2022/04/24 03:00:12;;;;;;;19.77;17.77;;;12.40;99.90;;;;;;5113290;28;20406;-69
2022/04/24 03:02:42;;;;;;;21.70;19.50;;;12.40;99.90;;;;;;5110882;28;20450;-69
2022/04/24 03:05:13;;;;;;;19.63;16.77;;;12.20;99.90;;;;;;5112757;28;20406;-69
2022/04/24 03:07:40;;;;;;;19.13;17.30;;;12.10;99.90;;;;;;5112442;28;20450;-69
2022/04/24 03:10:08;;;;;;;18.23;16.33;;;12.10;99.90;;;;;;5113737;28;20888;-69
2022/04/24 03:12:34;;;;;;;21.53;19.23;;;12.10;99.90;;;;;;5112992;28;20478;-68
2022/04/24 03:15:00;;;;;;;21.50;19.40;;;12.10;99.90;;;;;;5112853;28;20472;-69
2022/04/24 03:17:26;;;;;;;24.10;21.23;;;12.20;99.90;;;;;;5115465;28;20407;-69
2022/04/24 03:19:52;;;;;;;24.77;22.13;;;12.20;99.90;;;;;;5116236;28;20639;-69
2022/04/24 03:22:18;;;;;;;23.50;21.07;;;12.20;99.90;;;;;;5116200;28;20445;-69
2022/04/24 03:24:45;;;;;;;25.67;22.30;;;12.10;99.90;;;;;;5116536;28;20251;-69
2022/04/24 03:27:11;;;;;;;21.83;19.53;;;12.10;99.90;;;;;;5116590;28;20171;-69
2022/04/24 03:29:37;;;;;;;27.00;24.10;;;12.00;99.90;;;;;;5116343;28;20489;-69
2022/04/24 03:32:03;;;;;;;29.47;25.20;;;11.90;99.90;;;;;;5115869;28;20413;-69
2022/04/24 03:34:28;;;;;;;31.83;24.90;;;11.90;99.90;;;;;;5116310;28;20171;-69
2022/04/24 03:36:54;;;;;;;25.83;23.10;;;11.90;99.90;;;;;;5116375;28;20407;-68
2022/04/24 03:39:20;;;;;;;24.80;22.20;;;11.70;99.90;;;;;;5116048;28;20673;-68
2022/04/24 03:41:46;;;;;;;26.37;23.43;;;11.70;99.90;;;;;;5116169;28;20173;-68
2022/04/24 03:44:11;;;;;;;30.30;25.30;;;11.70;99.90;;;;;;5115815;28;20234;-68
2022/04/24 03:46:37;;;;;;;26.27;22.67;;;11.70;99.90;;;;;;5115650;28;20167;-67
2022/04/24 03:49:02;;;;;;;25.70;21.70;;;11.80;99.90;;;;;;5115667;28;20337;-67
2022/04/24 03:51:28;;;;;;;27.87;24.47;;;11.90;99.90;;;;;;5115777;28;20172;-68
2022/04/24 03:53:53;;;;;;;24.07;20.40;;;11.90;99.90;;;;;;5084278;28;20210;-68
2022/04/24 03:56:19;;;;;;;27.00;24.10;;;12.00;99.90;;;;;;5081816;28;20646;-68
2022/04/24 03:58:45;;;;;;;26.63;23.80;;;12.00;99.90;;;;;;5095181;28;20267;-68
2022/04/24 04:01:12;;;;;;;27.93;25.00;;;11.90;99.90;;;;;;5094919;28;20174;-68
2022/04/24 04:03:38;;;;;;;23.70;21.13;;;11.90;99.90;;;;;;5100880;28;20192;-68
2022/04/24 04:06:03;;;;;;;22.63;20.30;;;11.90;99.90;;;;;;5115552;28;20848;-70
2022/04/24 04:08:29;;;;;;;24.57;21.87;;;12.10;99.90;;;;;;5115444;28;20195;-68
2022/04/24 04:10:54;;;;;;;26.07;23.27;;;12.30;99.90;;;;;;5115626;28;20207;-68
2022/04/24 04:13:20;;;;;;;28.07;25.30;;;12.20;99.90;;;;;;5115083;28;20173;-68
2022/04/24 04:15:45;;;;;;;25.40;22.80;;;12.30;99.90;;;;;;5115230;28;20263;-68
2022/04/24 04:18:11;;;;;;;26.23;23.50;;;12.20;99.90;;;;;;5134572;22;20263;-68
2022/04/24 04:20:37;;;;;;;24.70;22.10;;;12.20;99.90;;;;;;5094161;28;20648;-66
2022/04/24 04:23:03;;;;;;;26.27;23.53;;;12.20;99.90;;;;;;5095122;28;20221;-68
2022/04/24 04:25:28;;;;;;;24.37;21.77;;;12.10;99.90;;;;;;5093818;28;20190;-68
2022/04/24 04:27:54;;;;;;;24.77;21.77;;;12.20;99.90;;;;;;5095056;28;20488;-67
2022/04/24 04:30:21;;;;;;;23.93;21.60;;;12.20;99.90;;;;;;5094815;28;20618;-67
2022/04/24 04:32:47;;;;;;;28.47;25.37;;;12.20;99.90;;;;;;5094913;28;20253;-68
2022/04/24 04:35:12;;;;;;;28.93;25.90;;;12.20;99.90;;;;;;5095079;28;20407;-68
2022/04/24 04:37:39;;;;;;;31.53;24.20;;;12.20;99.90;;;;;;5094872;28;20422;-68
2022/04/24 04:40:06;;;;;;;32.93;26.63;;;12.00;99.90;;;;;;5076968;28;20172;-68
2022/04/24 04:42:32;;;;;;;29.40;24.60;;;11.80;99.90;;;;;;5095364;28;20440;-68
2022/04/24 04:45:00;;;;;;;17.97;15.53;;;11.60;99.90;;;;;;5094933;28;20887;-68
2022/04/24 04:47:27;;;;;;;14.10;12.07;;;11.30;99.90;;;;;;5076484;28;20795;-68
2022/04/24 04:49:53;;;;;;;9.23;7.67;;;11.10;99.90;;;;;;5094575;28;20432;-68
2022/04/24 04:52:19;;;;;;;10.13;7.10;;;10.80;99.90;;;;;;5094752;28;20512;-69
2022/04/24 04:54:45;;;;;;;7.87;4.60;;;10.80;99.90;;;;;;5094457;28;20915;-69
2022/04/24 04:57:10;;;;;;;4.10;2.90;;;10.60;99.90;;;;;;5094696;28;20166;-68
2022/04/24 04:59:36;;;;;;;3.37;2.97;;;10.40;99.90;;;;;;5095092;28;20186;-67
2022/04/24 05:02:01;;;;;;;3.20;2.77;;;10.40;99.90;;;;;;5095209;28;20644;-67
2022/04/24 05:04:27;;;;;;;2.63;2.00;;;10.40;99.90;;;;;;5093549;28;20190;-67
2022/04/24 05:06:53;;;;;;;3.67;2.00;;;10.30;99.90;;;;;;5094015;28;20167;-69
2022/04/24 05:09:18;;;;;;;2.40;1.37;;;10.20;99.90;;;;;;5094637;28;20187;-67
2022/04/24 05:11:44;;;;;;;2.07;1.67;;;10.10;99.90;;;;;;5094410;28;20171;-68
2022/04/24 05:14:09;;;;;;;0.70;0.70;;;10.00;99.90;;;;;;5093321;28;20676;-68
2022/04/24 05:16:35;;;;;;;1.50;1.10;;;9.90;99.90;;;;;;5076091;28;20256;-68
2022/04/24 05:19:02;;;;;;;1.37;0.90;;;9.90;99.90;;;;;;5075813;28;20258;-67
2022/04/24 05:21:28;;;;;;;0.93;0.73;;;9.90;99.90;;;;;;5093746;28;20165;-67
2022/04/24 05:23:54;;;;;;;1.77;0.60;;;9.90;99.90;;;;;;5094204;28;20791;-67
2022/04/24 05:26:20;;;;;;;2.30;0.70;;;10.00;99.90;;;;;;5094454;28;20181;-67
2022/04/24 05:28:45;;;;;;;1.50;0.80;;;9.80;99.90;;;;;;5094093;28;20193;-67
2022/04/24 05:31:11;;;;;;;1.63;0.70;;;10.00;99.90;;;;;;5094295;28;20767;-68
2022/04/24 05:33:37;;;;;;;1.03;0.60;;;9.90;99.90;;;;;;5094331;28;20188;-68
2022/04/24 05:36:07;;;;;;;1.63;0.60;;;9.80;99.90;;;;;;5093311;28;20597;-68
2022/04/24 05:38:33;;;;;;;2.30;0.97;;;9.70;99.90;;;;;;5093300;28;20426;-68
2022/04/24 05:40:59;;;;;;;1.00;0.50;;;9.60;99.90;;;;;;5093980;28;20882;-68
2022/04/24 05:43:24;;;;;;;0.93;0.50;;;9.70;99.90;;;;;;5094332;28;20449;-68
2022/04/24 05:45:50;;;;;;;0.67;0.50;;;9.50;99.90;;;;;;5094294;28;20164;-68
2022/04/24 05:48:18;;;;;;;1.20;0.63;;;9.50;99.90;;;;;;5093529;28;20195;-68
2022/04/24 05:50:44;;;;;;;0.80;0.60;;;9.40;99.90;;;;;;5093411;28;20526;-68
2022/04/24 05:53:10;;;;;;;0.80;0.57;;;9.30;99.90;;;;;;5084397;28;20414;-68
2022/04/24 05:55:36;;;;;;;0.60;0.50;;;9.30;99.90;;;;;;5073802;28;20401;-68
2022/04/24 05:58:01;;;;;;;0.97;0.60;;;9.30;99.90;;;;;;5073957;28;20217;-68
2022/04/24 06:00:27;;;;;;;1.83;0.50;;;9.20;99.90;;;;;;5073214;28;20419;-68
2022/04/24 06:02:53;;;;;;;0.97;0.50;;;9.20;99.90;;;;;;5092192;28;20621;-68
2022/04/24 06:05:19;;;;;;;1.10;0.50;;;9.10;99.90;;;;;;5093183;28;20198;-67
2022/04/24 06:07:44;;;;;;;0.90;0.50;;;9.20;99.90;;;;;;5093666;28;20253;-68
2022/04/24 06:10:11;;;;;;;0.97;0.50;;;9.20;99.90;;;;;;5093228;28;20422;-68
2022/04/24 06:13:03;;;;;;;0.90;0.50;;;9.30;99.90;;;;;;5075268;28;20172;-66
2022/04/24 06:15:29;;;;;;;1.63;0.50;;;9.30;99.90;;;;;;5089605;28;20421;-67
2022/04/24 06:17:57;;;;;;;2.00;0.50;;;9.20;99.90;;;;;;5092973;28;20404;-68
2022/04/24 06:20:24;;;;;;;1.17;0.50;;;9.30;99.90;;;;;;5093283;28;20208;-67
2022/04/24 06:22:52;;;;;;;0.80;0.50;;;9.20;99.90;;;;;;5093554;28;20518;-67
2022/04/24 06:25:20;;;;;;;0.93;0.50;;;9.20;99.90;;;;;;5093584;28;20908;-68
2022/04/24 06:27:47;;;;;;;1.77;0.50;;;9.10;99.90;;;;;;5093792;28;20910;-68
2022/04/24 06:30:14;;;;;;;0.90;0.50;;;9.20;99.90;;;;;;5093596;28;20411;-67
2022/04/24 06:32:41;;;;;;;1.43;0.50;;;9.30;99.90;;;;;;5093905;28;20411;-67
2022/04/24 06:35:09;;;;;;;0.80;0.53;;;9.20;99.90;;;;;;5097981;28;20851;-67
2022/04/24 06:37:38;;;;;;;1.13;0.60;;;9.40;99.90;;;;;;5096173;28;20418;-67
2022/04/24 06:40:08;;;;;;;1.00;0.50;;;9.30;99.90;;;;;;5095176;28;20487;-67
2022/04/24 06:42:34;;;;;;;1.13;0.50;;;9.40;99.90;;;;;;5098779;28;20449;-67
2022/04/24 06:45:01;;;;;;;1.13;0.80;;;9.40;99.90;;;;;;5097754;28;20407;-67
2022/04/24 06:47:28;;;;;;;1.20;0.80;;;9.50;99.90;;;;;;5085350;28;20415;-69
2022/04/24 06:49:54;;;;;;;1.40;0.70;;;9.60;99.90;;;;;;5064347;28;20525;-68
2022/04/24 06:52:20;;;;;;;1.03;0.70;;;9.60;99.90;;;;;;5077229;28;20410;-69
2022/04/24 06:54:46;;;;;;;0.90;0.57;;;9.60;99.90;;;;;;5077557;28;20436;-68
2022/04/24 06:57:11;;;;;;;0.90;0.50;;;9.70;99.90;;;;;;5077466;28;20714;-69
2022/04/24 06:59:37;;;;;;;0.70;0.70;;;9.70;99.90;;;;;;5076903;28;20630;-70
2022/04/24 07:02:02;;;;;;;0.60;0.50;;;9.70;99.90;;;;;;5076454;28;20222;-69
2022/04/24 07:04:28;;;;;;;0.77;0.77;;;9.80;99.90;;;;;;5077088;28;20204;-69
2022/04/24 07:06:54;;;;;;;0.80;0.50;;;10.00;99.90;;;;;;5070360;28;20262;-69
2022/04/24 07:09:19;;;;;;;0.90;0.60;;;10.00;99.90;;;;;;5078603;28;20236;-69
2022/04/24 07:11:45;;;;;;;0.70;0.40;;;10.10;99.90;;;;;;5096709;28;20174;-69
2022/04/24 07:14:10;;;;;;;0.70;0.50;;;10.00;99.90;;;;;;5097352;28;20177;-69
2022/04/24 07:16:36;;;;;;;18.67;1.00;;;10.10;99.90;;;;;;5092262;28;20168;-69
2022/04/24 07:19:02;;;;;;;0.70;0.43;;;10.10;99.90;;;;;;5067032;28;20215;-68
2022/04/24 07:21:27;;;;;;;0.93;0.50;;;10.30;99.90;;;;;;5056159;28;20176;-69
2022/04/24 07:23:53;;;;;;;0.60;0.40;;;10.30;99.90;;;;;;5056211;28;20194;-69
2022/04/24 07:26:19;;;;;;;0.70;0.40;;;10.10;99.90;;;;;;5056897;28;20162;-69
2022/04/24 07:28:44;;;;;;;2.60;0.50;;;10.10;99.90;;;;;;5056585;28;20566;-69
2022/04/24 07:31:13;;;;;;;0.80;0.60;;;9.90;99.90;;;;;;5056469;28;20180;-69
2022/04/24 07:33:39;;;;;;;0.70;0.50;;;9.90;99.90;;;;;;5056699;28;20167;-68
2022/04/24 07:36:05;;;;;;;1.00;0.50;;;9.90;99.90;;;;;;5061569;28;20783;-68
2022/04/24 07:38:30;;;;;;;0.70;0.57;;;10.10;99.90;;;;;;5075549;28;20213;-69
2022/04/24 07:40:56;;;;;;;1.30;0.60;;;10.00;99.90;;;;;;5076705;28;20241;-70
2022/04/24 07:43:21;;;;;;;1.03;0.50;;;10.10;99.90;;;;;;5076165;28;20281;-70
2022/04/24 07:45:48;;;;;;;1.10;0.60;;;10.20;99.90;;;;;;5075429;28;20169;-69
2022/04/24 07:48:14;;;;;;;1.30;0.60;;;10.20;99.90;;;;;;5075749;28;20271;-69
2022/04/24 07:50:42;;;;;;;0.60;0.40;;;10.30;99.90;;;;;;5077300;28;20403;-69
2022/04/24 07:53:09;;;;;;;1.37;0.70;;;10.20;99.90;;;;;;5075408;28;20400;-69
2022/04/24 07:55:34;;;;;;;0.80;0.60;;;10.10;99.90;;;;;;5074196;28;20659;-70
2022/04/24 07:58:00;;;;;;;0.80;0.60;;;10.10;99.90;;;;;;5069512;28;20943;-71
2022/04/24 08:00:32;;;;;;;1.67;0.60;;;10.20;99.90;;;;;;5073910;28;20252;-71
2022/04/24 08:03:03;;;;;;;2.00;1.00;;;10.40;99.90;;;;;;5067752;28;20508;-71
2022/04/24 08:05:37;;;;;;;0.90;0.50;;;10.40;99.90;;;;;;5066420;28;20776;-72
2022/04/24 08:08:04;;;;;;;1.33;0.90;;;10.80;99.90;;;;;;5065870;28;20430;-70
2022/04/24 08:10:32;;;;;;;0.90;0.63;;;10.80;99.90;;;;;;5066430;28;20482;-71
2022/04/24 08:12:58;;;;;;;1.20;0.80;;;10.90;99.90;;;;;;5070455;28;20412;-69
2022/04/24 08:15:24;;;;;;;0.87;0.60;;;10.90;99.90;;;;;;5069294;28;20436;-70
2022/04/24 08:17:50;;;;;;;1.20;0.97;;;10.80;99.90;;;;;;5065565;28;20420;-69
2022/04/24 08:20:17;;;;;;;1.00;0.60;;;10.80;99.90;;;;;;5066099;28;20404;-71
2022/04/24 08:22:43;;;;;;;0.90;0.60;;;10.80;99.90;;;;;;5064916;28;20200;-68
2022/04/24 08:25:11;;;;;;;0.77;0.70;;;11.00;99.90;;;;;;5065496;28;20502;-68
2022/04/24 08:27:37;;;;;;;1.40;1.03;;;11.00;99.90;;;;;;5050742;28;20421;-70
2022/04/24 08:30:08;;;;;;;0.77;0.60;;;11.10;99.90;;;;;;5065697;28;20438;-70
2022/04/24 08:32:35;;;;;;;0.90;0.60;;;11.30;99.90;;;;;;5065469;28;20427;-68
2022/04/24 08:35:01;;;;;;;1.30;0.90;;;11.30;99.90;;;;;;5065155;28;20461;-68
2022/04/24 08:37:27;;;;;;;1.97;0.70;;;11.30;99.90;;;;;;5046873;28;20428;-71
2022/04/24 08:39:53;;;;;;;0.90;0.70;;;11.20;99.90;;;;;;5064996;28;21071;-69
2022/04/24 08:42:21;;;;;;;1.10;0.80;;;11.30;99.90;;;;;;5064572;28;20503;-69
2022/04/24 08:44:49;;;;;;;2.10;0.80;;;11.10;99.90;;;;;;5060775;28;20413;-70
2022/04/24 08:47:16;;;;;;;0.90;0.60;;;11.00;99.90;;;;;;5064113;28;20865;-71
2022/04/24 08:49:42;;;;;;;0.80;0.70;;;11.00;99.90;;;;;;5064957;28;20432;-69
2022/04/24 08:52:12;;;;;;;1.00;0.90;;;11.00;99.90;;;;;;5064585;28;20846;-68
2022/04/24 08:54:41;;;;;;;1.10;0.80;;;11.00;99.90;;;;;;5065128;28;20502;-68
2022/04/24 08:57:08;;;;;;;1.20;0.83;;;11.00;99.90;;;;;;5065228;28;20421;-69
2022/04/24 08:59:35;;;;;;;0.90;0.60;;;11.10;99.90;;;;;;5065068;28;21465;-70
2022/04/24 09:02:01;;;;;;;0.90;0.70;;;11.20;99.90;;;;;;5064602;28;20507;-71
2022/04/24 09:04:30;;;;;;;1.57;0.70;;;11.20;99.90;;;;;;5064490;28;20511;-69
2022/04/24 09:06:56;;;;;;;0.90;0.67;;;11.30;99.90;;;;;;5064579;28;20176;-71
2022/04/24 09:09:22;;;;;;;1.10;0.70;;;11.40;99.90;;;;;;5064498;28;20427;-71
2022/04/24 09:11:48;;;;;;;1.40;1.00;;;11.50;99.90;;;;;;5064481;28;20496;-71
2022/04/24 09:14:20;;;;;;;0.80;0.67;;;11.40;99.90;;;;;;5064295;28;20511;-70
2022/04/24 09:16:48;;;;;;;0.90;0.60;;;11.20;99.90;;;;;;5061941;28;20522;-70
2022/04/24 09:19:24;;;;;;;2.23;0.83;;;11.40;99.90;;;;;;5064320;28;20447;-69
2022/04/24 09:21:51;;;;;;;1.00;0.70;;;11.50;99.90;;;;;;5063540;28;20417;-71
2022/04/24 09:24:17;;;;;;;0.70;0.60;;;11.50;99.90;;;;;;5059078;28;20250;-68
2022/04/24 09:26:55;;;;;;;1.87;1.00;;;11.70;99.90;;;;;;5054200;28;20450;-68
2022/04/24 09:29:24;;;;;;;1.90;0.90;;;11.70;99.90;;;;;;5053564;28;20413;-68
2022/04/24 09:31:51;;;;;;;0.90;0.80;;;11.70;99.90;;;;;;5053571;28;20496;-68
2022/04/24 09:34:19;;;;;;;1.10;0.80;;;11.60;99.90;;;;;;5053893;28;20474;-68
2022/04/24 09:36:45;;;;;;;6.43;4.63;;;11.60;99.90;;;;;;5072619;28;20417;-68
2022/04/24 09:39:11;;;;;;;1.83;0.80;;;11.70;99.90;;;;;;5073889;28;20479;-68
2022/04/24 09:41:37;;;;;;;1.70;1.00;;;11.60;99.90;;;;;;5073981;28;20892;-69
2022/04/24 09:44:14;;;;;;;1.03;0.93;;;11.60;99.90;;;;;;5055346;28;20194;-71
2022/04/24 09:46:39;;;;;;;1.43;0.80;;;11.60;99.90;;;;;;5073729;28;20875;-68
2022/04/24 09:49:08;;;;;;;1.33;1.00;;;11.70;99.90;;;;;;5073250;28;20465;-68
2022/04/24 09:51:40;;;;;;;1.50;1.10;;;11.70;99.90;;;;;;5072923;28;20162;-68
2022/04/24 09:54:06;;;;;;;3.07;2.87;;;11.70;99.90;;;;;;5055911;28;20927;-68
2022/04/24 09:56:33;;;;;;;1.60;1.50;;;11.80;99.90;;;;;;5074005;28;20400;-68
2022/04/24 09:58:59;;;;;;;2.10;1.30;;;11.90;99.90;;;;;;5073779;28;20429;-68
2022/04/24 10:01:29;;;;;;;1.30;1.20;;;12.00;99.90;;;;;;5072571;28;20404;-69
2022/04/24 10:03:55;;;;;;;1.20;1.10;;;12.20;99.90;;;;;;5073423;28;20183;-68
2022/04/24 10:06:22;;;;;;;2.70;1.43;;;12.30;99.90;;;;;;5088716;28;20468;-70
2022/04/24 10:08:51;;;;;;;1.20;1.00;;;12.00;99.90;;;;;;5093070;28;20963;-68
2022/04/24 10:11:18;;;;;;;1.47;1.27;;;12.10;99.90;;;;;;5062117;28;20421;-69
2022/04/24 10:13:46;;;;;;;3.30;1.20;;;12.00;99.90;;;;;;5073313;28;20433;-68
2022/04/24 10:16:21;;;;;;;2.30;1.20;;;11.90;99.90;;;;;;5073265;28;20417;-68
2022/04/24 10:19:17;;;;;;;2.77;1.77;;;12.00;99.90;;;;;;5099027;22;20546;-69
2022/04/24 10:22:06;;;;;;;2.83;1.60;;;12.00;99.90;;;;;;5093430;28;20856;-69
2022/04/24 10:24:45;;;;;;;1.40;1.30;;;11.90;99.90;;;;;;5093975;28;20729;-69
2022/04/24 10:27:11;;;;;;;1.30;1.17;;;12.10;99.90;;;;;;5096966;28;20967;-69
2022/04/24 10:30:00;;;;;;;1.20;1.10;;;12.00;99.90;;;;;;5097207;28;20435;-69
2022/04/24 10:32:27;;;;;;;1.43;0.93;;;12.10;99.90;;;;;;5096882;28;20408;-69
2022/04/24 10:34:53;;;;;;;2.30;0.90;;;12.10;99.90;;;;;;5096635;28;20394;-69
2022/04/24 10:37:31;;;;;;;1.10;1.00;;;12.10;99.90;;;;;;5097164;28;20980;-69
2022/04/24 10:39:58;;;;;;;1.50;1.00;;;12.20;99.90;;;;;;5097361;28;20270;-60
2022/04/24 10:42:35;;;;;;;1.10;0.93;;;12.40;99.90;;;;;;5096821;28;20548;-67
2022/04/24 10:45:14;;;;;;;1.80;1.20;;;12.30;99.90;;;;;;5078599;28;20430;-70
2022/04/24 10:47:47;;;;;;;1.30;0.90;;;12.40;99.90;;;;;;5096789;28;20462;-66
2022/04/24 10:50:13;;;;;;;1.23;1.10;;;12.20;99.90;;;;;;5096018;28;20431;-66
2022/04/24 10:52:46;;;;;;;1.30;1.20;;;12.20;99.90;;;;;;5090918;28;20410;-76
2022/04/24 10:55:14;;;;;;;1.10;0.90;;;12.50;99.90;;;;;;5047919;28;20433;-66
2022/04/24 10:57:45;;;;;;;1.40;0.93;;;12.20;99.90;;;;;;5056231;28;21019;-67
2022/04/24 11:00:27;;;;;;;1.03;0.90;;;12.20;99.90;;;;;;5056118;28;20356;-67
2022/04/24 11:03:03;;;;;;;1.13;1.00;;;11.80;99.90;;;;;;5056682;28;20433;-68
2022/04/24 11:05:36;;;;;;;0.80;0.70;;;11.80;99.90;;;;;;5055774;28;20391;-68
2022/04/24 11:08:06;;;;;;;1.35;1.25;;;12.00;99.90;;;;;;5091695;28;20413;-70
2022/04/24 11:10:39;;;;;;;1.00;0.80;;;12.20;99.90;;;;;;5096158;28;20256;-69
2022/04/24 11:13:08;;;;;;;1.27;1.17;;;12.00;99.90;;;;;;5078124;28;20501;-71
2022/04/24 11:15:34;;;;;;;0.80;0.73;;;11.90;99.90;;;;;;5096462;28;20813;-71
2022/04/24 11:18:00;;;;;;;1.23;0.90;;;12.00;99.90;;;;;;5096493;28;20411;-71
2022/04/24 11:20:31;;;;;;;1.50;1.30;;;12.10;99.90;;;;;;5095949;28;20997;-71
2022/04/24 11:22:57;;;;;;;1.40;1.30;;;12.30;99.90;;;;;;5095668;28;20185;-71
2022/04/24 11:25:25;;;;;;;0.97;0.80;;;12.40;99.90;;;;;;5095978;28;20397;-72
2022/04/24 11:27:59;;;;;;;1.97;0.83;;;12.40;99.90;;;;;;5096220;28;20814;-71
2022/04/24 11:30:37;;;;;;;0.93;0.83;;;12.40;99.90;;;;;;5095947;28;20488;-72
2022/04/24 11:33:07;;;;;;;1.60;0.93;;;12.00;99.90;;;;;;5095844;28;20380;-72
2022/04/24 11:35:36;;;;;;;1.00;0.80;;;12.10;99.90;;;;;;5095934;28;20395;-72
2022/04/24 11:38:03;;;;;;;1.20;1.10;;;12.50;99.90;;;;;;5084250;28;20429;-72
2022/04/24 11:40:29;;;;;;;1.30;0.70;;;12.70;99.90;;;;;;5075355;28;20421;-72
2022/04/24 11:43:03;;;;;;;1.00;0.70;;;12.70;99.90;;;;;;5075399;28;20565;-72
2022/04/24 11:51:02;;;;;;;1.57;1.10;;;12.40;99.90;;;;;;5075206;28;20436;-72
2022/04/24 11:53:28;;;;;;;0.80;0.63;;;12.60;99.90;;;;;;5075108;28;20420;-72
2022/04/24 11:56:01;;;;;;;0.93;0.73;;;12.40;99.90;;;;;;5075278;28;20420;-72
2022/04/24 11:58:38;;;;;;;1.03;0.93;;;12.70;99.90;;;;;;5075482;28;20468;-71
2022/04/24 12:01:09;;;;;;;3.53;1.47;;;12.60;99.90;;;;;;5057288;28;20410;-71
2022/04/24 12:03:37;;;;;;;1.20;0.80;;;12.90;99.90;;;;;;5057160;28;20477;-71
2022/04/24 12:06:05;;;;;;;1.53;0.90;;;12.90;99.90;;;;;;5056350;28;20407;-71
2022/04/24 12:08:50;;;;;;;1.80;1.00;;;13.00;99.90;;;;;;5076996;28;20408;-71
2022/04/24 12:11:32;;;;;;;1.43;1.33;;;13.00;99.90;;;;;;5095280;28;20406;-72
2022/04/24 12:14:06;;;;;;;0.90;0.70;;;13.20;99.90;;;;;;5095407;28;20411;-72
2022/04/24 12:16:33;;;;;;;1.27;0.70;;;13.30;99.90;;;;;;5095435;28;20378;-72
2022/04/24 12:18:59;;;;;;;1.10;0.80;;;13.50;99.90;;;;;;5095163;28;20453;-71
2022/04/24 12:21:31;;;;;;;1.00;0.90;;;13.40;99.90;;;;;;5095290;28;20405;-72
2022/04/24 12:24:49;;;;;;;1.10;0.87;;;13.00;99.90;;;;;;5060346;28;20557;-71
2022/04/24 12:27:16;;;;;;;1.03;0.80;;;13.00;99.90;;;;;;5054526;28;20402;-72
2022/04/24 12:29:50;;;;;;;1.00;0.70;;;13.00;99.90;;;;;;5054669;28;20760;-71
2022/04/24 12:32:17;;;;;;;0.90;0.80;;;13.10;99.90;;;;;;5054505;28;20392;-70
2022/04/24 12:34:47;;;;;;;6.27;2.40;;;13.00;99.90;;;;;;5055088;28;20458;-70
2022/04/24 12:37:15;;;;;;;5.83;2.60;;;13.00;99.90;;;;;;5054483;28;20412;-70
2022/04/24 12:39:50;;;;;;;2.50;1.50;;;13.00;99.90;;;;;;5054356;28;20414;-69
2022/04/24 12:42:17;;;;;;;2.47;1.20;;;13.00;99.90;;;;;;5080624;28;20495;-70
2022/04/24 12:44:44;;;;;;;1.37;0.90;;;12.80;99.90;;;;;;5093748;28;20859;-70
2022/04/24 12:47:10;;;;;;;0.80;0.60;;;12.90;99.90;;;;;;5076286;28;20434;-69
2022/04/24 12:49:36;;;;;;;1.23;0.80;;;13.00;99.90;;;;;;5094452;28;20504;-70